DLH45JK EDDF-KIAD
Flight info
| Callsign | DLH45JK |
|---|---|
| Flight time | N/A |
| Altitude | 41000 |
| Route | OBOKA3M/25C OBOKA Z28 DIBIR DCT BUDIP DCT RAVLO Y70 OTBED L60 PENIL M144 BAGSO DCT ADBUS DCT DOGAL/M082F410 NATC ELSIR/N0469F410 DCT ALLEX DCT KAYCC DCT KYLOH DCT BAF HYPER9 |
| Aircraft | A346/H-SDE2E3FGHIJ3J4J5M1RWXY/LB1D1 |
Departure
| Time | 2026-05-07 15:10 |
|---|---|
| Airport | Frankfurt Main Airport (EDDF) |
Arrival
| Time | N/A |
|---|---|
| Airport | Washington Dulles International Airport (KIAD) |
| Time | Latitude | Longitude | Altitude | Speed | Heading |
|---|---|---|---|---|---|
| 2026-05-07 14:49 | 50.03622 | 8.52324 | 356 ft | 0 kts | 340° |
| 2026-05-07 15:02 | 50.03621 | 8.52324 | 349 ft | 1 kts | 340° |
| 2026-05-07 15:02 | 50.03600 | 8.52337 | 354 ft | 2 kts | 340° |
| 2026-05-07 15:02 | 50.03581 | 8.52353 | 359 ft | 4 kts | 315° |
| 2026-05-07 15:02 | 50.03572 | 8.52375 | 358 ft | 4 kts | 276° |
| 2026-05-07 15:03 | 50.03575 | 8.52409 | 359 ft | 4 kts | 250° |
| 2026-05-07 15:03 | 50.03585 | 8.52446 | 359 ft | 2 kts | 249° |
| 2026-05-07 15:03 | 50.03585 | 8.52449 | 359 ft | 0 kts | 249° |
| 2026-05-07 15:05 | 50.03573 | 8.52397 | 358 ft | 24 kts | 249° |
| 2026-05-07 15:05 | 50.03564 | 8.52362 | 359 ft | 0 kts | 248° |
| 2026-05-07 15:07 | 50.03554 | 8.52338 | 350 ft | 9 kts | 224° |
| 2026-05-07 15:08 | 50.03463 | 8.52303 | 350 ft | 15 kts | 182° |
| 2026-05-07 15:08 | 50.03399 | 8.52405 | 348 ft | 8 kts | 92° |
| 2026-05-07 15:08 | 50.03399 | 8.52414 | 348 ft | 0 kts | 91° |
| 2026-05-07 15:08 | 50.03399 | 8.52451 | 345 ft | 15 kts | 90° |
| 2026-05-07 15:09 | 50.03311 | 8.52590 | 349 ft | 22 kts | 175° |
| 2026-05-07 15:09 | 50.03125 | 8.52597 | 344 ft | 55 kts | 179° |
| 2026-05-07 15:09 | 50.02490 | 8.52602 | 346 ft | 125 kts | 180° |
| 2026-05-07 15:09 | 50.01417 | 8.52618 | 379 ft | 175 kts | 181° |
| 2026-05-07 15:10 | 50.00219 | 8.52634 | 1012 ft | 173 kts | 181° |
| 2026-05-07 15:10 | 49.98980 | 8.52632 | 1462 ft | 182 kts | 181° |
| 2026-05-07 15:10 | 49.97712 | 8.52234 | 1797 ft | 195 kts | 212° |
| 2026-05-07 15:10 | 49.96636 | 8.50845 | 2164 ft | 209 kts | 225° |
| 2026-05-07 15:11 | 49.95566 | 8.49185 | 2501 ft | 226 kts | 226° |
| 2026-05-07 15:11 | 49.94393 | 8.47358 | 2847 ft | 245 kts | 226° |
| 2026-05-07 15:11 | 49.93124 | 8.45416 | 3304 ft | 258 kts | 225° |
| 2026-05-07 15:11 | 49.91819 | 8.43445 | 3964 ft | 263 kts | 225° |
| 2026-05-07 15:12 | 49.90497 | 8.41462 | 4740 ft | 265 kts | 225° |
| 2026-05-07 15:12 | 49.89181 | 8.39495 | 5507 ft | 266 kts | 225° |
| 2026-05-07 15:12 | 49.87907 | 8.37398 | 6250 ft | 268 kts | 239° |
| 2026-05-07 15:12 | 49.87284 | 8.34705 | 6949 ft | 267 kts | 267° |
| 2026-05-07 15:13 | 49.87544 | 8.31881 | 7635 ft | 268 kts | 294° |
| 2026-05-07 15:13 | 49.88489 | 8.29371 | 8326 ft | 271 kts | 303° |
| 2026-05-07 15:13 | 49.89546 | 8.26914 | 8987 ft | 275 kts | 303° |
| 2026-05-07 15:13 | 49.90592 | 8.24453 | 9637 ft | 278 kts | 303° |
| 2026-05-07 15:14 | 49.91654 | 8.21917 | 10238 ft | 281 kts | 302° |
| 2026-05-07 15:14 | 49.92732 | 8.19314 | 10622 ft | 293 kts | 303° |
| 2026-05-07 15:14 | 49.93968 | 8.16674 | 10904 ft | 309 kts | 309° |
| 2026-05-07 15:14 | 49.95475 | 8.14186 | 11221 ft | 324 kts | 316° |
| 2026-05-07 15:15 | 49.97204 | 8.11808 | 11507 ft | 339 kts | 319° |
| 2026-05-07 15:15 | 49.99041 | 8.09371 | 11793 ft | 354 kts | 319° |
| 2026-05-07 15:15 | 50.00961 | 8.06829 | 12077 ft | 369 kts | 319° |
| 2026-05-07 15:15 | 50.02917 | 8.04231 | 12580 ft | 376 kts | 319° |
| 2026-05-07 15:16 | 50.04912 | 8.01571 | 13288 ft | 378 kts | 319° |
| 2026-05-07 15:16 | 50.06925 | 7.98877 | 13969 ft | 381 kts | 319° |
| 2026-05-07 15:16 | 50.08949 | 7.96161 | 14533 ft | 385 kts | 319° |
| 2026-05-07 15:16 | 50.10988 | 7.93420 | 15109 ft | 388 kts | 318° |
| 2026-05-07 15:17 | 50.13041 | 7.90657 | 15685 ft | 392 kts | 318° |
| 2026-05-07 15:17 | 50.15120 | 7.87852 | 16258 ft | 395 kts | 318° |
| 2026-05-07 15:17 | 50.17215 | 7.85022 | 16830 ft | 399 kts | 318° |
| 2026-05-07 15:17 | 50.19293 | 7.82212 | 17402 ft | 402 kts | 318° |
| 2026-05-07 15:18 | 50.21421 | 7.79333 | 17960 ft | 405 kts | 318° |
| 2026-05-07 15:18 | 50.23606 | 7.76467 | 18489 ft | 409 kts | 321° |
| 2026-05-07 15:18 | 50.25965 | 7.73920 | 18973 ft | 413 kts | 327° |
| 2026-05-07 15:18 | 50.28477 | 7.71777 | 19445 ft | 417 kts | 333° |
| 2026-05-07 15:19 | 50.31148 | 7.69882 | 19947 ft | 420 kts | 335° |
| 2026-05-07 15:19 | 50.33842 | 7.68055 | 20431 ft | 423 kts | 335° |
| 2026-05-07 15:19 | 50.36528 | 7.66241 | 20913 ft | 426 kts | 335° |
| 2026-05-07 15:19 | 50.39265 | 7.64377 | 21412 ft | 428 kts | 335° |
| 2026-05-07 15:20 | 50.42006 | 7.62499 | 21968 ft | 429 kts | 335° |
| 2026-05-07 15:20 | 50.44745 | 7.60616 | 22478 ft | 431 kts | 335° |
| 2026-05-07 15:20 | 50.47468 | 7.58738 | 22931 ft | 434 kts | 335° |
| 2026-05-07 15:20 | 50.50248 | 7.56819 | 23385 ft | 437 kts | 335° |
| 2026-05-07 15:21 | 50.53040 | 7.54857 | 23793 ft | 440 kts | 333° |
| 2026-05-07 15:21 | 50.55787 | 7.52679 | 24177 ft | 442 kts | 330° |
| 2026-05-07 15:21 | 50.58461 | 7.50250 | 24559 ft | 443 kts | 327° |
| 2026-05-07 15:21 | 50.61045 | 7.47665 | 24945 ft | 445 kts | 326° |
| 2026-05-07 15:22 | 50.63662 | 7.44973 | 25337 ft | 447 kts | 326° |
| 2026-05-07 15:22 | 50.66280 | 7.42265 | 25713 ft | 450 kts | 326° |
| 2026-05-07 15:22 | 50.68884 | 7.39580 | 26082 ft | 452 kts | 326° |
| 2026-05-07 15:22 | 50.71511 | 7.36790 | 26448 ft | 454 kts | 322° |
| 2026-05-07 15:23 | 50.73943 | 7.33590 | 26801 ft | 455 kts | 315° |
| 2026-05-07 15:23 | 50.76126 | 7.29947 | 27166 ft | 456 kts | 309° |
| 2026-05-07 15:23 | 50.78054 | 7.25950 | 27525 ft | 458 kts | 305° |
| 2026-05-07 15:23 | 50.79901 | 7.21819 | 27881 ft | 460 kts | 304° |
| 2026-05-07 15:24 | 50.81741 | 7.17644 | 28228 ft | 462 kts | 304° |
| 2026-05-07 15:24 | 50.83567 | 7.13498 | 28564 ft | 465 kts | 304° |
| 2026-05-07 15:24 | 50.85435 | 7.09270 | 28903 ft | 467 kts | 304° |
| 2026-05-07 15:24 | 50.87309 | 7.05039 | 29243 ft | 469 kts | 304° |
| 2026-05-07 15:25 | 50.89188 | 7.00797 | 29605 ft | 470 kts | 304° |
| 2026-05-07 15:25 | 50.91067 | 6.96556 | 30095 ft | 469 kts | 304° |
| 2026-05-07 15:25 | 50.92944 | 6.92317 | 30553 ft | 467 kts | 304° |
| 2026-05-07 15:25 | 50.94783 | 6.88155 | 30964 ft | 466 kts | 304° |
| 2026-05-07 15:26 | 50.96652 | 6.83917 | 31350 ft | 465 kts | 304° |
| 2026-05-07 15:26 | 50.98507 | 6.79704 | 31731 ft | 464 kts | 304° |
| 2026-05-07 15:26 | 51.00356 | 6.75497 | 32129 ft | 463 kts | 304° |
| 2026-05-07 15:26 | 51.02200 | 6.71294 | 32517 ft | 462 kts | 304° |
| 2026-05-07 15:27 | 51.04018 | 6.67142 | 32900 ft | 461 kts | 304° |
| 2026-05-07 15:27 | 51.05854 | 6.62941 | 33277 ft | 460 kts | 304° |
| 2026-05-07 15:27 | 51.07679 | 6.58759 | 33651 ft | 459 kts | 304° |
| 2026-05-07 15:27 | 51.09504 | 6.54571 | 33998 ft | 458 kts | 304° |
| 2026-05-07 15:28 | 51.11299 | 6.50447 | 34302 ft | 457 kts | 303° |
| 2026-05-07 15:28 | 51.13110 | 6.46280 | 34563 ft | 457 kts | 303° |
| 2026-05-07 15:28 | 51.14928 | 6.42089 | 34761 ft | 458 kts | 303° |
| 2026-05-07 15:28 | 51.16776 | 6.37819 | 34985 ft | 459 kts | 303° |
| 2026-05-07 15:29 | 51.18587 | 6.33628 | 35216 ft | 460 kts | 303° |
| 2026-05-07 15:29 | 51.20405 | 6.29412 | 35415 ft | 460 kts | 303° |
| 2026-05-07 15:29 | 51.22224 | 6.25187 | 35630 ft | 461 kts | 303° |
| 2026-05-07 15:29 | 51.24019 | 6.21012 | 35818 ft | 461 kts | 303° |
| 2026-05-07 15:30 | 51.25834 | 6.16781 | 36013 ft | 462 kts | 303° |
| 2026-05-07 15:30 | 51.27661 | 6.12516 | 36199 ft | 462 kts | 303° |
| 2026-05-07 15:30 | 51.29452 | 6.08230 | 36379 ft | 463 kts | 302° |
| 2026-05-07 15:30 | 51.31200 | 6.03950 | 36547 ft | 463 kts | 302° |
| 2026-05-07 15:31 | 51.32964 | 5.99608 | 36724 ft | 464 kts | 301° |
| 2026-05-07 15:31 | 51.34733 | 5.95261 | 36873 ft | 464 kts | 302° |
| 2026-05-07 15:31 | 51.36572 | 5.90981 | 37041 ft | 465 kts | 304° |
| 2026-05-07 15:31 | 51.38540 | 5.86858 | 37194 ft | 466 kts | 307° |
| 2026-05-07 15:32 | 51.40644 | 5.82888 | 37347 ft | 467 kts | 310° |
| 2026-05-07 15:32 | 51.42838 | 5.79092 | 37490 ft | 468 kts | 311° |
| 2026-05-07 15:32 | 51.45091 | 5.75289 | 37629 ft | 469 kts | 312° |
| 2026-05-07 15:32 | 51.47355 | 5.71485 | 37776 ft | 469 kts | 312° |
| 2026-05-07 15:33 | 51.51837 | 5.63926 | 38004 ft | 470 kts | 312° |
| 2026-05-07 15:33 | 51.54095 | 5.60104 | 38143 ft | 470 kts | 312° |
| 2026-05-07 15:33 | 51.55589 | 5.57570 | 38232 ft | 470 kts | 311° |
| 2026-05-07 15:34 | 51.57847 | 5.53734 | 38333 ft | 471 kts | 311° |
| 2026-05-07 15:34 | 51.60095 | 5.49906 | 38416 ft | 471 kts | 311° |
| 2026-05-07 15:34 | 51.64617 | 5.42189 | 38555 ft | 474 kts | 311° |
| 2026-05-07 15:35 | 51.69134 | 5.34455 | 38683 ft | 476 kts | 311° |
| 2026-05-07 15:35 | 51.73681 | 5.26646 | 38816 ft | 477 kts | 311° |
| 2026-05-07 15:36 | 51.78241 | 5.18787 | 38935 ft | 478 kts | 311° |
| 2026-05-07 15:36 | 51.82772 | 5.10955 | 39049 ft | 480 kts | 311° |
| 2026-05-07 15:37 | 51.87346 | 5.03024 | 39142 ft | 481 kts | 311° |
| 2026-05-07 15:37 | 51.91891 | 4.95116 | 39236 ft | 482 kts | 311° |
| 2026-05-07 15:38 | 51.96469 | 4.87128 | 39313 ft | 483 kts | 311° |
| 2026-05-07 15:38 | 52.01076 | 4.79062 | 39387 ft | 484 kts | 311° |
| 2026-05-07 15:39 | 52.05634 | 4.71054 | 39449 ft | 484 kts | 311° |
| 2026-05-07 15:39 | 52.10215 | 4.62982 | 39502 ft | 485 kts | 311° |
| 2026-05-07 15:40 | 52.14778 | 4.54914 | 39561 ft | 486 kts | 311° |
| 2026-05-07 15:40 | 52.19373 | 4.46763 | 39602 ft | 486 kts | 311° |
| 2026-05-07 15:41 | 52.23932 | 4.38651 | 39654 ft | 487 kts | 311° |
| 2026-05-07 15:41 | 52.28516 | 4.30465 | 39695 ft | 487 kts | 311° |
| 2026-05-07 15:42 | 52.33080 | 4.22292 | 39739 ft | 488 kts | 311° |
| 2026-05-07 15:42 | 52.37668 | 4.14044 | 39767 ft | 488 kts | 310° |
| 2026-05-07 15:43 | 52.42229 | 4.05819 | 39813 ft | 488 kts | 310° |
| 2026-05-07 15:43 | 52.46778 | 3.97588 | 39839 ft | 489 kts | 310° |
| 2026-05-07 15:44 | 52.51352 | 3.89284 | 39867 ft | 489 kts | 310° |
| 2026-05-07 15:44 | 52.55926 | 3.80953 | 39887 ft | 489 kts | 310° |
| 2026-05-07 15:45 | 52.60469 | 3.72651 | 39918 ft | 490 kts | 310° |
| 2026-05-07 15:45 | 52.65010 | 3.64322 | 39938 ft | 490 kts | 310° |
| 2026-05-07 15:46 | 52.71847 | 3.51732 | 39967 ft | 490 kts | 310° |
| 2026-05-07 15:47 | 52.76368 | 3.43371 | 39980 ft | 490 kts | 310° |
| 2026-05-07 15:47 | 52.80918 | 3.34924 | 39990 ft | 490 kts | 310° |
| 2026-05-07 15:48 | 52.85384 | 3.26387 | 39999 ft | 490 kts | 306° |
| 2026-05-07 15:48 | 52.89168 | 3.17073 | 40010 ft | 488 kts | 298° |
| 2026-05-07 15:49 | 52.92102 | 3.06926 | 40018 ft | 486 kts | 289° |
| 2026-05-07 15:49 | 52.94121 | 2.96207 | 40025 ft | 485 kts | 282° |
| 2026-05-07 15:50 | 52.95566 | 2.85325 | 40046 ft | 484 kts | 281° |
| 2026-05-07 15:50 | 52.96983 | 2.74347 | 40054 ft | 484 kts | 281° |
| 2026-05-07 15:51 | 52.98389 | 2.63444 | 40064 ft | 484 kts | 281° |
| 2026-05-07 15:51 | 52.99800 | 2.52469 | 40079 ft | 484 kts | 281° |
| 2026-05-07 15:52 | 53.01195 | 2.41542 | 40090 ft | 485 kts | 281° |
| 2026-05-07 15:52 | 53.02585 | 2.30569 | 40098 ft | 485 kts | 280° |
| 2026-05-07 15:53 | 53.03968 | 2.19563 | 40102 ft | 484 kts | 280° |
| 2026-05-07 15:53 | 53.05329 | 2.08628 | 40096 ft | 484 kts | 280° |
| 2026-05-07 15:54 | 53.06689 | 1.97598 | 40104 ft | 484 kts | 280° |
| 2026-05-07 15:54 | 53.08023 | 1.86661 | 40098 ft | 484 kts | 280° |
| 2026-05-07 15:55 | 53.09356 | 1.75650 | 40097 ft | 484 kts | 280° |
| 2026-05-07 15:55 | 53.10678 | 1.64631 | 40099 ft | 484 kts | 279° |
| 2026-05-07 15:56 | 53.11990 | 1.53603 | 40096 ft | 484 kts | 279° |
| 2026-05-07 15:56 | 53.13284 | 1.42641 | 40095 ft | 484 kts | 279° |
| 2026-05-07 15:57 | 53.14576 | 1.31599 | 40090 ft | 484 kts | 279° |
| 2026-05-07 15:57 | 53.15848 | 1.20632 | 40087 ft | 483 kts | 279° |
| 2026-05-07 15:58 | 53.17119 | 1.09590 | 40080 ft | 483 kts | 279° |
| 2026-05-07 15:58 | 53.18368 | 0.98625 | 40075 ft | 483 kts | 279° |